Time;durP1;ratioP1;P1;durP2;ratioP2;P2;SDS_P1;SDS_P2;PMS_P1;PMS_P2;Temp;Humidity;BMP_temperature;BMP_pressure;BME280_temperature;BME280_humidity;BME280_pressure;Samples;Min_cycle;Max_cycle;Signal;HPM_P1;HPM_P2
2023/06/09 00:02:13;;;;;;;;;;;;;;;15.97;53.96289;101798.7;;;;-67
2023/06/09 00:07:15;;;;;;;;;;;;;;;15.86;54.04102;101791;;;;-67
2023/06/09 00:12:14;;;;;;;;;;;;;;;15.8;54.13477;101787.8;;;;-65
2023/06/09 00:17:16;;;;;;;;;;;;;;;15.74;53.94727;101786.7;;;;-67
2023/06/09 00:17:55;;;;;;;0.2;0.1;;;;;;;;;;;;;-67
2023/06/09 00:22:15;;;;;;;;;;;;;;;15.69;54.2793;101777.8;;;;-67
2023/06/09 00:27:13;;;;;;;;;;;;;;;15.65;54.66992;101783.4;;;;-68
2023/06/09 00:32:13;;;;;;;;;;;;;;;15.6;55.14941;101782.3;;;;-67
2023/06/09 00:37:12;;;;;;;;;;;;;;;15.53;54.82422;101775.7;;;;-68
2023/06/09 00:42:13;;;;;;;;;;;;;;;15.52;54.54102;101772.3;;;;-69
2023/06/09 00:47:13;;;;;;;;;;;;;;;15.46;54.32031;101770.2;;;;-67
2023/06/09 00:48:00;;;;;;;0.2;0;;;;;;;;;;;;;-68
2023/06/09 00:52:13;;;;;;;;;;;;;;;15.43;54.67676;101763.4;;;;-68
2023/06/09 00:57:13;;;;;;;;;;;;;;;15.34;54.6543;101763.6;;;;-67
2023/06/09 01:02:14;;;;;;;;;;;;;;;15.33;54.75391;101764.8;;;;-67
2023/06/09 01:07:20;;;;;;;;;;;;;;;15.32;54.50488;101766.1;;;;-71
2023/06/09 01:12:19;;;;;;;;;;;;;;;15.27;55.24219;101761.8;;;;-68
2023/06/09 01:17:18;;;;;;;;;;;;;;;15.25;55.22949;101755.8;;;;-68
2023/06/09 01:18:00;;;;;;;0.2;0.1;;;;;;;;;;;;;-68
2023/06/09 01:22:21;;;;;;;;;;;;;;;15.17;55.15234;101760;;;;-67
2023/06/09 01:27:14;;;;;;;;;;;;;;;15.13;55.01074;101760.1;;;;-68
2023/06/09 01:32:13;;;;;;;;;;;;;;;15.07;55.38574;101760.8;;;;-67
2023/06/09 01:37:14;;;;;;;;;;;;;;;15.09;55.19824;101751.9;;;;-68
2023/06/09 01:42:13;;;;;;;;;;;;;;;15.08;55.35352;101748.6;;;;-67
2023/06/09 01:47:15;;;;;;;;;;;;;;;15.04;55.07813;101742.1;;;;-68
2023/06/09 01:48:01;;;;;;;0.2;0.1;;;;;;;;;;;;;-68
2023/06/09 01:52:21;;;;;;;;;;;;;;;14.97;55.27246;101739;;;;-67
2023/06/09 01:57:18;;;;;;;;;;;;;;;14.95;55.74316;101730.5;;;;-68
2023/06/09 02:02:14;;;;;;;;;;;;;;;14.92;55.99805;101732.1;;;;-67
2023/06/09 02:07:16;;;;;;;;;;;;;;;14.9;56.10742;101735.1;;;;-68
2023/06/09 02:12:13;;;;;;;;;;;;;;;14.84;56.4043;101734.1;;;;-67
2023/06/09 02:17:12;;;;;;;;;;;;;;;14.82;55.66895;101729.3;;;;-68
2023/06/09 02:18:06;;;;;;;0.2;0.1;;;;;;;;;;;;;-67
2023/06/09 02:22:13;;;;;;;;;;;;;;;14.79;55.75684;101725.4;;;;-67
2023/06/09 02:27:14;;;;;;;;;;;;;;;14.79;56.15039;101722.6;;;;-68
2023/06/09 02:32:13;;;;;;;;;;;;;;;14.77;55.69727;101724.3;;;;-68
2023/06/09 02:37:13;;;;;;;;;;;;;;;14.75;55.86328;101722.1;;;;-68
2023/06/09 02:42:13;;;;;;;;;;;;;;;14.72;56.0625;101721;;;;-67
2023/06/09 02:47:13;;;;;;;;;;;;;;;14.73;56.57129;101714.4;;;;-67
2023/06/09 02:48:05;;;;;;;0.2;0.1;;;;;;;;;;;;;-66
2023/06/09 02:52:13;;;;;;;;;;;;;;;14.7;56.67773;101706.8;;;;-67
2023/06/09 02:57:13;;;;;;;;;;;;;;;14.68;57.01465;101707.2;;;;-68
2023/06/09 03:02:13;;;;;;;;;;;;;;;14.67;56.91113;101708.7;;;;-68
2023/06/09 03:07:13;;;;;;;;;;;;;;;14.63;56.97363;101700;;;;-69
2023/06/09 03:12:14;;;;;;;;;;;;;;;14.62;57.58008;101700.5;;;;-69
2023/06/09 03:17:13;;;;;;;;;;;;;;;14.61;57.75977;101690.2;;;;-67
2023/06/09 03:18:07;;;;;;;0.2;0.1;;;;;;;;;;;;;-67
2023/06/09 03:22:12;;;;;;;;;;;;;;;14.59;58.3291;101695.5;;;;-67
2023/06/09 03:27:12;;;;;;;;;;;;;;;14.56;58.52637;101693.5;;;;-66
2023/06/09 03:32:13;;;;;;;;;;;;;;;14.57;58.56152;101694.6;;;;-66
2023/06/09 03:37:14;;;;;;;;;;;;;;;14.54;58.68164;101691.1;;;;-68
2023/06/09 03:42:12;;;;;;;;;;;;;;;14.55;58.54785;101689.9;;;;-69
2023/06/09 03:47:14;;;;;;;;;;;;;;;14.56;58.9209;101700.5;;;;-67
2023/06/09 03:48:10;;;;;;;0.2;0.1;;;;;;;;;;;;;-70
2023/06/09 03:52:12;;;;;;;;;;;;;;;14.53;58.72656;101707.1;;;;-67
2023/06/09 03:57:12;;;;;;;;;;;;;;;14.54;58.45703;101701.9;;;;-67
2023/06/09 04:02:15;;;;;;;;;;;;;;;14.56;58.78516;101698.8;;;;-67
2023/06/09 04:07:14;;;;;;;;;;;;;;;14.56;58.34668;101692.1;;;;-69
2023/06/09 04:12:13;;;;;;;;;;;;;;;14.6;58.46484;101698.3;;;;-68
2023/06/09 04:17:14;;;;;;;;;;;;;;;14.62;58.05176;101695.1;;;;-67
2023/06/09 04:18:12;;;;;;;0.2;0.1;;;;;;;;;;;;;-67
2023/06/09 04:22:13;;;;;;;;;;;;;;;14.63;57.87402;101692.2;;;;-69
2023/06/09 04:27:15;;;;;;;;;;;;;;;14.66;58.16895;101698.2;;;;-68
2023/06/09 04:32:13;;;;;;;;;;;;;;;14.7;58.3877;101697.1;;;;-69
2023/06/09 04:37:13;;;;;;;;;;;;;;;14.76;58.48633;101691.9;;;;-67
2023/06/09 04:42:13;;;;;;;;;;;;;;;14.77;58.70215;101692.7;;;;-69
2023/06/09 04:47:13;;;;;;;;;;;;;;;14.82;59.53906;101694.2;;;;-67
2023/06/09 04:48:12;;;;;;;0.2;0.1;;;;;;;;;;;;;-67
2023/06/09 04:52:12;;;;;;;;;;;;;;;14.87;59.79395;101697.8;;;;-69
2023/06/09 04:57:17;;;;;;;;;;;;;;;14.94;60.6582;101696.1;;;;-67
2023/06/09 05:02:12;;;;;;;;;;;;;;;15.06;60.73145;101701.2;;;;-67
2023/06/09 05:07:12;;;;;;;;;;;;;;;15.09;60.06055;101701.9;;;;-68
2023/06/09 05:12:13;;;;;;;;;;;;;;;15.25;61.67969;101706.9;;;;-67
2023/06/09 05:17:13;;;;;;;;;;;;;;;15.27;61.15332;101705.9;;;;-67
2023/06/09 05:18:19;;;;;;;0.2;0.1;;;;;;;;;;;;;-68
2023/06/09 05:22:12;;;;;;;;;;;;;;;15.49;61.08203;101708.1;;;;-68
2023/06/09 05:27:12;;;;;;;;;;;;;;;16.01;60.68066;101704;;;;-69
2023/06/09 05:32:13;;;;;;;;;;;;;;;16.4;60.0459;101706.8;;;;-68
2023/06/09 05:37:15;;;;;;;;;;;;;;;16.85;58.39258;101709.2;;;;-69
2023/06/09 05:42:13;;;;;;;;;;;;;;;17.33;57.52734;101704;;;;-67
2023/06/09 05:47:12;;;;;;;;;;;;;;;17.79;56.80566;101706;;;;-66
2023/06/09 05:48:16;;;;;;;0.2;0;;;;;;;;;;;;;-66
2023/06/09 05:52:12;;;;;;;;;;;;;;;18.08;56.37695;101704.4;;;;-67
2023/06/09 05:57:15;;;;;;;;;;;;;;;18.4;55.62402;101700.6;;;;-68
2023/06/09 06:02:13;;;;;;;;;;;;;;;18.75;54.84961;101704.3;;;;-69
2023/06/09 06:07:14;;;;;;;;;;;;;;;19.13;53.95215;101706.2;;;;-68
2023/06/09 06:12:14;;;;;;;;;;;;;;;19.44;53.79688;101712.2;;;;-67
2023/06/09 06:17:12;;;;;;;;;;;;;;;19.67;53.41504;101709.6;;;;-69
2023/06/09 06:18:20;;;;;;;0.4;0.2;;;;;;;;;;;;;-69
2023/06/09 06:22:12;;;;;;;;;;;;;;;19.91;53.07813;101702.3;;;;-68
2023/06/09 06:27:17;;;;;;;;;;;;;;;20.06;53.00586;101703.2;;;;-68
2023/06/09 06:32:13;;;;;;;;;;;;;;;20.4;52.4873;101710.6;;;;-68
2023/06/09 06:37:15;;;;;;;;;;;;;;;20.74;52.15137;101707.2;;;;-69
2023/06/09 06:42:13;;;;;;;;;;;;;;;21.01;51.25586;101715.2;;;;-68
2023/06/09 06:47:15;;;;;;;;;;;;;;;21.28;50.91016;101712;;;;-68
2023/06/09 06:48:21;;;;;;;0.3;0.1;;;;;;;;;;;;;-69
2023/06/09 06:52:13;;;;;;;;;;;;;;;21.5;50.59082;101713.2;;;;-68
2023/06/09 06:57:12;;;;;;;;;;;;;;;21.79;50.04102;101712.5;;;;-68
2023/06/09 07:02:13;;;;;;;;;;;;;;;22.02;49.66504;101709.4;;;;-69
2023/06/09 07:07:13;;;;;;;;;;;;;;;22.27;49.41699;101712.5;;;;-68
2023/06/09 07:12:13;;;;;;;;;;;;;;;22.54;48.73535;101708.1;;;;-68
2023/06/09 07:17:13;;;;;;;;;;;;;;;22.75;48.45996;101718.7;;;;-67
2023/06/09 07:18:24;;;;;;;0.3;0.2;;;;;;;;;;;;;-67
2023/06/09 07:22:12;;;;;;;;;;;;;;;22.82;48.73145;101711.5;;;;-68
2023/06/09 07:27:12;;;;;;;;;;;;;;;23.04;48.2041;101713.6;;;;-68
2023/06/09 07:32:13;;;;;;;;;;;;;;;23.21;48.06152;101707;;;;-68
2023/06/09 07:37:13;;;;;;;;;;;;;;;23.49;47.72266;101710.7;;;;-68
2023/06/09 07:42:12;;;;;;;;;;;;;;;23.62;47.51855;101709.9;;;;-69
2023/06/09 07:47:12;;;;;;;;;;;;;;;23.8;47.37598;101706.8;;;;-68
2023/06/09 07:48:28;;;;;;;0.2;0;;;;;;;;;;;;;-68
2023/06/09 07:52:13;;;;;;;;;;;;;;;23.89;47.25879;101709.8;;;;-68
2023/06/09 07:57:13;;;;;;;;;;;;;;;24.1;47.16602;101707.4;;;;-68
2023/06/09 08:02:12;;;;;;;;;;;;;;;24.25;46.8125;101710;;;;-68
2023/06/09 08:07:15;;;;;;;;;;;;;;;24.4;46.80566;101711.8;;;;-69
2023/06/09 08:12:13;;;;;;;;;;;;;;;24.52;46.59863;101712.9;;;;-69
2023/06/09 08:17:13;;;;;;;;;;;;;;;24.73;46.41309;101709.9;;;;-69
2023/06/09 08:18:31;;;;;;;0.3;0.1;;;;;;;;;;;;;-69
2023/06/09 08:22:14;;;;;;;;;;;;;;;24.93;46.31836;101712;;;;-70
2023/06/09 08:27:14;;;;;;;;;;;;;;;25.08;46.0332;101705.7;;;;-68
2023/06/09 08:32:15;;;;;;;;;;;;;;;25.31;45.8252;101699;;;;-68
2023/06/09 08:37:15;;;;;;;;;;;;;;;25.55;45.54883;101696.7;;;;-69
2023/06/09 08:42:18;;;;;;;;;;;;;;;25.73;45.23145;101691.8;;;;-69
2023/06/09 08:47:15;;;;;;;;;;;;;;;25.83;45.12598;101689.8;;;;-67
2023/06/09 08:48:36;;;;;;;0.3;0.1;;;;;;;;;;;;;-67
2023/06/09 08:52:13;;;;;;;;;;;;;;;25.91;45.0752;101687.2;;;;-69
2023/06/09 08:57:13;;;;;;;;;;;;;;;26.06;45.02051;101694.8;;;;-68
2023/06/09 09:02:13;;;;;;;;;;;;;;;26.26;44.82129;101698.3;;;;-68
2023/06/09 09:07:13;;;;;;;;;;;;;;;26.49;44.48438;101704.5;;;;-68
2023/06/09 09:12:13;;;;;;;;;;;;;;;26.65;44.29199;101709.2;;;;-67
2023/06/09 09:17:15;;;;;;;;;;;;;;;26.81;44.0625;101706.3;;;;-68
2023/06/09 09:18:42;;;;;;;0.4;0.1;;;;;;;;;;;;;-69
2023/06/09 09:22:13;;;;;;;;;;;;;;;27.06;43.6582;101713.8;;;;-68
2023/06/09 09:27:18;;;;;;;;;;;;;;;27.23;43.30273;101713.5;;;;-67
2023/06/09 09:32:12;;;;;;;;;;;;;;;27.54;43.06543;101700.6;;;;-68
2023/06/09 09:37:13;;;;;;;;;;;;;;;27.85;42.40918;101707;;;;-67
2023/06/09 09:42:13;;;;;;;;;;;;;;;28.06;42.11426;101707.7;;;;-67
2023/06/09 09:47:17;;;;;;;;;;;;;;;28.2;41.87109;101701.2;;;;-68
2023/06/09 09:48:44;;;;;;;0.2;0;;;;;;;;;;;;;-67
2023/06/09 09:52:13;;;;;;;;;;;;;;;28.44;41.73047;101698.7;;;;-67
2023/06/09 09:57:13;;;;;;;;;;;;;;;28.69;41.41504;101693.3;;;;-69
2023/06/09 10:02:16;;;;;;;;;;;;;;;28.81;41.14453;101688.6;;;;-67
2023/06/09 10:07:13;;;;;;;;;;;;;;;28.97;40.5293;101685;;;;-68
2023/06/09 10:12:13;;;;;;;;;;;;;;;29.05;40.77051;101674.9;;;;-68
2023/06/09 10:17:14;;;;;;;;;;;;;;;29.31;40.30273;101673.7;;;;-67
2023/06/09 10:18:51;;;;;;;0.6;0.2;;;;;;;;;;;;;-67
2023/06/09 10:22:15;;;;;;;;;;;;;;;29.43;40.19727;101672.5;;;;-67
2023/06/09 10:27:13;;;;;;;;;;;;;;;29.59;39.79102;101671.1;;;;-70
2023/06/09 10:32:18;;;;;;;;;;;;;;;29.74;39.88477;101672.8;;;;-70
2023/06/09 10:37:12;;;;;;;;;;;;;;;29.89;39.66406;101667;;;;-70
2023/06/09 10:42:16;;;;;;;;;;;;;;;30.04;40.97656;101665.4;;;;-69
2023/06/09 10:47:13;;;;;;;;;;;;;;;30.3;39.67676;101663.5;;;;-68
2023/06/09 10:48:54;;;;;;;0.8;0.4;;;;;;;;;;;;;-70
2023/06/09 10:52:25;;;;;;;;;;;;;;;30.57;39.0791;101661.5;;;;-71
2023/06/09 10:57:26;;;;;;;;;;;;;;;30.74;39.19922;101659.6;;;;-71
2023/06/09 11:02:27;;;;;;;;;;;;;;;30.92;39.22656;101658.5;;;;-70
2023/06/09 11:07:21;;;;;;;;;;;;;;;31.13;39.59668;101646.3;;;;-68
2023/06/09 11:12:23;;;;;;;;;;;;;;;31.31;39.33105;101642.9;;;;-68
2023/06/09 11:17:25;;;;;;;;;;;;;;;31.43;39.48242;101640.6;;;;-69
2023/06/09 11:19:13;;;;;;;0.2;0.1;;;;;;;;;;;;;-68
2023/06/09 11:22:13;;;;;;;;;;;;;;;31.59;39.16699;101630.8;;;;-70
2023/06/09 11:27:24;;;;;;;;;;;;;;;31.73;39.03809;101616.2;;;;-69
2023/06/09 11:32:13;;;;;;;;;;;;;;;31.89;38.59277;101615.4;;;;-68
2023/06/09 11:37:12;;;;;;;;;;;;;;;32.2;38.10254;101622.9;;;;-67
2023/06/09 11:42:14;;;;;;;;;;;;;;;32.31;37.86328;101607.8;;;;-67
2023/06/09 11:47:23;;;;;;;;;;;;;;;32.54;38.2832;101603.9;;;;-68
2023/06/09 11:49:08;;;;;;;0.1;0;;;;;;;;;;;;;-69
2023/06/09 11:52:13;;;;;;;;;;;;;;;32.63;37.80762;101597.1;;;;-71
2023/06/09 11:57:13;;;;;;;;;;;;;;;32.71;37.40234;101595.4;;;;-68
2023/06/09 12:02:16;;;;;;;;;;;;;;;32.82;38.20117;101600.2;;;;-67
2023/06/09 12:07:13;;;;;;;;;;;;;;;32.95;38.17676;101595.8;;;;-68
2023/06/09 12:12:13;;;;;;;;;;;;;;;33.05;37.99609;101601.5;;;;-68
2023/06/09 12:17:14;;;;;;;;;;;;;;;33.18;38.21875;101595.7;;;;-69
2023/06/09 12:19:10;;;;;;;0.2;0;;;;;;;;;;;;;-68
2023/06/09 12:22:12;;;;;;;;;;;;;;;33.41;37.31836;101591.2;;;;-66
2023/06/09 12:27:18;;;;;;;;;;;;;;;33.45;37.34473;101583.7;;;;-68
2023/06/09 12:32:13;;;;;;;;;;;;;;;33.6;37.10938;101582.7;;;;-68
2023/06/09 12:37:12;;;;;;;;;;;;;;;33.63;36.28516;101579.3;;;;-69
2023/06/09 12:42:22;;;;;;;;;;;;;;;33.59;36.23535;101574.6;;;;-67
2023/06/09 12:47:23;;;;;;;;;;;;;;;33.65;36.16895;101574.2;;;;-69
2023/06/09 12:49:19;;;;;;;0.2;0;;;;;;;;;;;;;-67
2023/06/09 12:52:12;;;;;;;;;;;;;;;33.82;35.4502;101569;;;;-68
2023/06/09 12:57:15;;;;;;;;;;;;;;;33.95;35.40137;101569.2;;;;-69
2023/06/09 13:02:12;;;;;;;;;;;;;;;34.01;35.41699;101571.7;;;;-69
2023/06/09 13:07:12;;;;;;;;;;;;;;;34.15;35.81836;101567;;;;-68
2023/06/09 13:12:13;;;;;;;;;;;;;;;34.3;35.88867;101562.8;;;;-67
2023/06/09 13:17:15;;;;;;;;;;;;;;;34.5;36.44922;101560.4;;;;-68
2023/06/09 13:19:22;;;;;;;0.4;0.1;;;;;;;;;;;;;-69
2023/06/09 13:22:18;;;;;;;;;;;;;;;34.71;36.24023;101562.8;;;;-68
2023/06/09 13:27:12;;;;;;;;;;;;;;;34.83;35.7998;101557.1;;;;-68
2023/06/09 13:32:13;;;;;;;;;;;;;;;34.96;34.21094;101550.2;;;;-70
2023/06/09 13:37:15;;;;;;;;;;;;;;;34.88;34.01563;101547.9;;;;-68
2023/06/09 13:42:12;;;;;;;;;;;;;;;34.86;34.51172;101533.7;;;;-70
2023/06/09 13:47:12;;;;;;;;;;;;;;;34.89;33.79102;101530;;;;-67
2023/06/09 13:49:30;;;;;;;1.2;0.6;;;;;;;;;;;;;-67
2023/06/09 13:52:12;;;;;;;;;;;;;;;35.02;33.82422;101528.5;;;;-67
2023/06/09 13:57:12;;;;;;;;;;;;;;;35.06;34.52734;101525.2;;;;-70
2023/06/09 14:02:12;;;;;;;;;;;;;;;35.16;33.39648;101513.2;;;;-69
2023/06/09 14:07:16;;;;;;;;;;;;;;;35.2;33.60059;101507;;;;-68
2023/06/09 14:12:13;;;;;;;;;;;;;;;35.25;33.52148;101499.6;;;;-71
2023/06/09 14:17:13;;;;;;;;;;;;;;;35.32;32.60156;101499.7;;;;-69
2023/06/09 14:19:37;;;;;;;0.2;0;;;;;;;;;;;;;-67
2023/06/09 14:22:13;;;;;;;;;;;;;;;35.34;32.56641;101490.7;;;;-67
2023/06/09 14:27:14;;;;;;;;;;;;;;;35.28;32.21777;101493;;;;-68
2023/06/09 14:32:13;;;;;;;;;;;;;;;35.14;32.25586;101485.5;;;;-71
2023/06/09 14:37:12;;;;;;;;;;;;;;;35.17;31.99805;101477.8;;;;-67
2023/06/09 14:42:13;;;;;;;;;;;;;;;35.26;31.73145;101477.5;;;;-68
2023/06/09 14:47:12;;;;;;;;;;;;;;;35.31;32.00684;101484.7;;;;-68
2023/06/09 14:49:41;;;;;;;0.3;0.1;;;;;;;;;;;;;-67
2023/06/09 14:52:15;;;;;;;;;;;;;;;35.28;31.98047;101477.9;;;;-67
2023/06/09 14:57:12;;;;;;;;;;;;;;;35.2;31.86914;101468.3;;;;-68
2023/06/09 15:02:12;;;;;;;;;;;;;;;35.17;31.99707;101465.5;;;;-67
2023/06/09 15:07:15;;;;;;;;;;;;;;;35.16;31.83105;101465.5;;;;-66
2023/06/09 15:12:14;;;;;;;;;;;;;;;35.12;31.19922;101460.3;;;;-68
2023/06/09 15:17:12;;;;;;;;;;;;;;;35.08;30.76953;101458.3;;;;-68
2023/06/09 15:19:47;;;;;;;0.3;0.1;;;;;;;;;;;;;-67
2023/06/09 15:22:13;;;;;;;;;;;;;;;34.97;30.41797;101446.9;;;;-68
2023/06/09 15:27:12;;;;;;;;;;;;;;;34.92;31.16211;101449.9;;;;-68
2023/06/09 15:32:12;;;;;;;;;;;;;;;35;31.22656;101439.7;;;;-70
2023/06/09 15:37:12;;;;;;;;;;;;;;;35.03;31.03906;101442.6;;;;-68
2023/06/09 15:42:13;;;;;;;;;;;;;;;34.93;31.31738;101440.2;;;;-67
2023/06/09 15:47:13;;;;;;;;;;;;;;;34.87;31.02832;101441.5;;;;-69
2023/06/09 15:49:54;;;;;;;0.8;0.1;;;;;;;;;;;;;-68
2023/06/09 15:52:13;;;;;;;;;;;;;;;34.74;30.61621;101433.5;;;;-69
2023/06/09 15:57:13;;;;;;;;;;;;;;;34.61;31.22363;101441.3;;;;-68
2023/06/09 16:02:12;;;;;;;;;;;;;;;34.55;31.06543;101433.6;;;;-67
2023/06/09 16:07:12;;;;;;;;;;;;;;;34.57;31.38672;101432.7;;;;-69
2023/06/09 16:12:13;;;;;;;;;;;;;;;34.47;31.00098;101425.5;;;;-68
2023/06/09 16:17:15;;;;;;;;;;;;;;;34.3;31.1084;101423.5;;;;-68
2023/06/09 16:20:01;;;;;;;0.2;0;;;;;;;;;;;;;-68
2023/06/09 16:22:13;;;;;;;;;;;;;;;34.14;31.25098;101416.5;;;;-68
2023/06/09 16:27:12;;;;;;;;;;;;;;;33.93;31.55566;101408.3;;;;-68
2023/06/09 16:32:13;;;;;;;;;;;;;;;33.84;31.28906;101411.6;;;;-69
2023/06/09 16:37:12;;;;;;;;;;;;;;;33.6;31.41504;101409.9;;;;-68
2023/06/09 16:42:12;;;;;;;;;;;;;;;33.42;31.66211;101405.1;;;;-68
2023/06/09 16:47:14;;;;;;;;;;;;;;;33.27;31.71191;101409.3;;;;-67
2023/06/09 16:50:06;;;;;;;0.3;0.1;;;;;;;;;;;;;-68
2023/06/09 16:52:13;;;;;;;;;;;;;;;33.1;31.47559;101408.3;;;;-68
2023/06/09 16:57:13;;;;;;;;;;;;;;;32.87;31.9668;101400.4;;;;-67
2023/06/09 17:02:14;;;;;;;;;;;;;;;32.67;32.2832;101400.5;;;;-67
2023/06/09 17:07:13;;;;;;;;;;;;;;;32.52;32.40234;101402.3;;;;-71
2023/06/09 17:12:15;;;;;;;;;;;;;;;32.32;32.6709;101409;;;;-73
2023/06/09 17:20:13;;;;;;;0.2;0.1;;;;;;;;;;;;;-72
2023/06/09 17:20:45;;;;;;;;;;;;;;;32.06;33.52441;101408.2;;;;-71
2023/06/09 17:25:45;;;;;;;;;;;;;;;31.82;33.50586;101405.2;;;;-71
2023/06/09 17:30:44;;;;;;;;;;;;;;;31.68;34.13184;101416.5;;;;-72
2023/06/09 17:35:47;;;;;;;;;;;;;;;31.49;34.44727;101417;;;;-72
2023/06/09 17:40:45;;;;;;;;;;;;;;;31.34;34.85742;101414.9;;;;-74
2023/06/09 17:45:45;;;;;;;;;;;;;;;31.19;35.46875;101420.2;;;;-71
2023/06/09 17:50:18;;;;;;;0.3;0.2;;;;;;;;;;;;;-71
2023/06/09 17:50:44;;;;;;;;;;;;;;;30.95;35.70996;101423.7;;;;-72
2023/06/09 17:55:45;;;;;;;;;;;;;;;30.79;36.00098;101421.1;;;;-73
2023/06/09 18:00:45;;;;;;;;;;;;;;;30.61;36.41016;101427.1;;;;-71
2023/06/09 18:05:44;;;;;;;;;;;;;;;30.44;36.73633;101427;;;;-73
2023/06/09 18:10:47;;;;;;;;;;;;;;;30.18;37.17285;101428.7;;;;-71
2023/06/09 18:15:45;;;;;;;;;;;;;;;29.99;37.77637;101433.2;;;;-70
2023/06/09 18:20:24;;;;;;;0.1;0;;;;;;;;;;;;;-71
2023/06/09 18:20:46;;;;;;;;;;;;;;;29.79;38.18164;101436.4;;;;-72
2023/06/09 18:25:48;;;;;;;;;;;;;;;29.62;38.63574;101446.1;;;;-73
2023/06/09 18:30:48;;;;;;;;;;;;;;;29.48;38.13184;101447.9;;;;-71
2023/06/09 18:35:45;;;;;;;;;;;;;;;29.21;39.05566;101447.7;;;;-71
2023/06/09 18:40:45;;;;;;;;;;;;;;;29.04;38.63281;101455.2;;;;-73
2023/06/09 18:45:46;;;;;;;;;;;;;;;28.92;39.01953;101451.9;;;;-72
2023/06/09 18:50:30;;;;;;;0.2;0;;;;;;;;;;;;;-74
2023/06/09 18:50:45;;;;;;;;;;;;;;;28.66;39.87207;101451.7;;;;-71
2023/06/09 18:55:47;;;;;;;;;;;;;;;28.53;38.68262;101461.8;;;;-70
2023/06/09 19:00:47;;;;;;;;;;;;;;;28.27;39.19727;101461.6;;;;-70
2023/06/09 19:05:45;;;;;;;;;;;;;;;28.05;39.28223;101468.2;;;;-70
2023/06/09 19:10:45;;;;;;;;;;;;;;;27.81;39.75;101484.9;;;;-71
2023/06/09 19:15:45;;;;;;;;;;;;;;;27.55;40.16992;101480.2;;;;-71
2023/06/09 19:20:34;;;;;;;0.9;0.5;;;;;;;;;;;;;-72
2023/06/09 19:20:47;;;;;;;;;;;;;;;27.31;40.31152;101491.9;;;;-72
2023/06/09 19:25:47;;;;;;;;;;;;;;;27.09;40.93164;101491.9;;;;-71
2023/06/09 19:30:45;;;;;;;;;;;;;;;26.86;41.13184;101489.8;;;;-71
2023/06/09 19:35:46;;;;;;;;;;;;;;;26.64;41.30762;101502.1;;;;-72
2023/06/09 19:40:44;;;;;;;;;;;;;;;26.45;41.33691;101509.6;;;;-71
2023/06/09 19:45:45;;;;;;;;;;;;;;;26.24;41.70117;101518.2;;;;-70
2023/06/09 19:50:39;;;;;;;0.2;0.1;;;;;;;;;;;;;-72
2023/06/09 19:50:51;;;;;;;;;;;;;;;26.04;41.87988;101526.7;;;;-71
2023/06/09 19:55:45;;;;;;;;;;;;;;;25.84;42.74121;101528.2;;;;-72
2023/06/09 20:00:45;;;;;;;;;;;;;;;25.63;43.10352;101539.8;;;;-73
2023/06/09 20:05:48;;;;;;;;;;;;;;;25.42;43.0957;101541.3;;;;-71
2023/06/09 20:10:45;;;;;;;;;;;;;;;25.27;43.55469;101555.8;;;;-72
2023/06/09 20:15:45;;;;;;;;;;;;;;;25.12;44.08301;101565.1;;;;-72
2023/06/09 20:20:44;;;;;;;0.3;0.1;;;;;;;;;;;;;-71
2023/06/09 20:20:54;;;;;;;;;;;;;;;24.92;44.12109;101569.7;;;;-73
2023/06/09 20:25:46;;;;;;;;;;;;;;;24.79;44.74414;101572.6;;;;-71
2023/06/09 20:30:45;;;;;;;;;;;;;;;24.6;44.58789;101577.2;;;;-72
2023/06/09 20:35:49;;;;;;;;;;;;;;;24.46;45.21973;101586.7;;;;-72
2023/06/09 20:40:45;;;;;;;;;;;;;;;24.35;45.33496;101581.6;;;;-73
2023/06/09 20:45:47;;;;;;;;;;;;;;;24.18;45.85938;101588.6;;;;-72
2023/06/09 20:50:45;;;;;;;;;;;;;;;24.06;45.75586;101589;;;;-72
2023/06/09 20:50:54;;;;;;;0.2;0;;;;;;;;;;;;;-72
2023/06/09 20:55:47;;;;;;;;;;;;;;;23.92;46.34082;101599.9;;;;-71
2023/06/09 21:00:48;;;;;;;;;;;;;;;23.81;46.09863;101600.7;;;;-72
2023/06/09 21:05:45;;;;;;;;;;;;;;;23.69;46.51172;101601.4;;;;-71
2023/06/09 21:10:45;;;;;;;;;;;;;;;23.54;46.98047;101606.1;;;;-71
2023/06/09 21:15:45;;;;;;;;;;;;;;;23.44;46.94727;101611.8;;;;-71
2023/06/09 21:20:45;;;;;;;;;;;;;;;23.33;47.38477;101609.8;;;;-71
2023/06/09 21:20:54;;;;;;;0.2;0.1;;;;;;;;;;;;;-71
2023/06/09 21:25:45;;;;;;;;;;;;;;;23.23;47.4082;101612;;;;-72
2023/06/09 21:30:45;;;;;;;;;;;;;;;23.1;48.26855;101615.2;;;;-72
2023/06/09 21:35:45;;;;;;;;;;;;;;;23.03;47.8125;101614.4;;;;-68
2023/06/09 21:40:45;;;;;;;;;;;;;;;22.93;48.14551;101614.9;;;;-69
2023/06/09 21:45:45;;;;;;;;;;;;;;;22.83;48.30762;101615.8;;;;-69
2023/06/09 21:50:45;;;;;;;;;;;;;;;22.76;48.4834;101615.1;;;;-67
2023/06/09 21:50:54;;;;;;;0.2;0.1;;;;;;;;;;;;;-67
2023/06/09 21:55:45;;;;;;;;;;;;;;;22.65;48.30078;101617.5;;;;-69
2023/06/09 22:00:45;;;;;;;;;;;;;;;22.56;48.41602;101623.9;;;;-68
2023/06/09 22:05:47;;;;;;;;;;;;;;;22.46;48.77344;101621.5;;;;-69
2023/06/09 22:10:45;;;;;;;;;;;;;;;22.38;48.62695;101622.1;;;;-69
2023/06/09 22:15:45;;;;;;;;;;;;;;;22.28;48.95898;101629;;;;-68
2023/06/09 22:20:45;;;;;;;;;;;;;;;22.17;49.0166;101632.1;;;;-69
2023/06/09 22:20:56;;;;;;;0.2;0;;;;;;;;;;;;;-68
2023/06/09 22:25:45;;;;;;;;;;;;;;;22.08;49.46484;101628.3;;;;-70
2023/06/09 22:30:47;;;;;;;;;;;;;;;21.98;49.55762;101630.1;;;;-68
2023/06/09 22:35:45;;;;;;;;;;;;;;;21.92;49.66504;101626.7;;;;-68
2023/06/09 22:40:45;;;;;;;;;;;;;;;21.83;49.73633;101639.5;;;;-69
2023/06/09 22:45:45;;;;;;;;;;;;;;;21.77;49.64844;101631.3;;;;-68
2023/06/09 22:50:45;;;;;;;;;;;;;;;21.7;50.09766;101635.6;;;;-69
2023/06/09 22:50:59;;;;;;;0.4;0.2;;;;;;;;;;;;;-67
2023/06/09 22:55:45;;;;;;;;;;;;;;;21.58;50.52051;101635.4;;;;-70
2023/06/09 23:00:44;;;;;;;;;;;;;;;21.54;50.42383;101628.9;;;;-69
2023/06/09 23:05:45;;;;;;;;;;;;;;;21.45;50.24219;101630.2;;;;-68
2023/06/09 23:10:44;;;;;;;;;;;;;;;21.4;50.27051;101635.1;;;;-68
2023/06/09 23:15:45;;;;;;;;;;;;;;;21.32;50.18164;101629.2;;;;-69
2023/06/09 23:20:45;;;;;;;;;;;;;;;21.24;50.48242;101635.1;;;;-67
2023/06/09 23:21:03;;;;;;;0.2;0.1;;;;;;;;;;;;;-66
2023/06/09 23:25:46;;;;;;;;;;;;;;;21.18;50.60156;101633.8;;;;-69
2023/06/09 23:30:44;;;;;;;;;;;;;;;21.07;50.49707;101637.1;;;;-67
2023/06/09 23:35:44;;;;;;;;;;;;;;;21.01;50.58203;101635;;;;-68
2023/06/09 23:40:45;;;;;;;;;;;;;;;20.92;50.53711;101638.2;;;;-69
2023/06/09 23:45:44;;;;;;;;;;;;;;;20.85;50.44922;101640.8;;;;-68
2023/06/09 23:50:46;;;;;;;;;;;;;;;20.79;50.68262;101641.4;;;;-67
2023/06/09 23:51:06;;;;;;;0.2;0.1;;;;;;;;;;;;;-68
2023/06/09 23:55:44;;;;;;;;;;;;;;;20.71;50.71875;101644;;;;-69
